Time;durP1;ratioP1;P1;durP2;ratioP2;P2;SDS_P1;SDS_P2;PMS_P1;PMS_P2;Temp;Humidity;BMP_temperature;BMP_pressure;BME280_temperature;BME280_humidity;BME280_pressure;Samples;Min_cycle;Max_cycle;Signal;HPM_P1;HPM_P2
2021/07/30 00:00:59;;;;;;;;;;;14.70;99.90;;;13.46;85.65;100778.31;3470762;39;102079;-40
2021/07/30 00:03:26;;;;;;;;;;;14.70;99.90;;;13.51;85.69;100772.09;3469935;40;102264;-41
2021/07/30 00:05:54;;;;;;;;;;;14.80;99.90;;;13.56;85.21;100772.25;3470381;40;103055;-41
2021/07/30 00:08:21;;;;;;;;;;;14.80;99.90;;;13.59;84.66;100777.28;3470524;40;103049;-41
2021/07/30 00:10:52;;;;;;;;;;;14.90;99.90;;;13.63;83.15;100769.41;3470219;40;102224;-40
2021/07/30 00:13:19;;;;;;;;;;;14.90;99.90;;;13.69;82.43;100764.88;3470363;40;103075;-41
2021/07/30 00:15:46;;;;;;;;;;;14.90;99.90;;;13.75;82.65;100766.69;3470444;39;102223;-43
2021/07/30 00:18:13;;;;;;;;;;;15.00;99.90;;;13.74;82.74;100756.78;3470119;40;103079;-41
2021/07/30 00:20:41;;;;;;;;;;;15.10;99.90;;;13.81;84.07;100763.84;3469596;40;102185;-41
2021/07/30 00:23:08;;;;;;;;;;;15.10;99.90;;;13.81;83.91;100760.28;3469877;40;103046;-41
2021/07/30 00:25:35;;;;;;;;;;;15.10;99.90;;;13.84;84.03;100769.91;3469332;40;102776;-41
2021/07/30 00:28:03;;;;;;;;;;;15.10;99.90;;;13.88;84.15;100771.97;3470453;40;102954;-41
2021/07/30 00:30:30;;;;;;;;;;;15.10;99.90;;;13.91;85.30;100774.25;3469545;40;102131;-41
2021/07/30 00:32:57;;;;;;;;;;;15.20;99.90;;;13.92;85.87;100775.91;3470348;40;102142;-44
2021/07/30 00:35:24;;;;;;;;;;;15.20;99.90;;;13.95;86.27;100772.69;3469644;40;102201;-40
2021/07/30 00:37:51;;;;;;;;;;;15.20;99.90;;;13.97;86.68;100774.34;3470132;40;103141;-41
2021/07/30 00:40:19;;;;;;;;;;;15.20;99.90;;;14.00;87.06;100773.88;3469655;40;102145;-41
2021/07/30 00:42:49;;;;;;;;;;;15.30;99.90;;;13.97;86.91;100766.97;3469183;40;102288;-41
2021/07/30 00:45:16;;;;;;;;;;;15.30;99.90;;;14.01;87.14;100768.16;3469646;40;102621;-41
2021/07/30 00:47:45;;;;;;;;;;;15.30;99.90;;;14.06;86.81;100764.72;3469652;40;103133;-41
2021/07/30 00:50:12;;;;;;;;;;;15.30;99.90;;;14.08;86.76;100768.06;3470444;39;102179;-41
2021/07/30 00:52:40;;;;;;;;;;;15.30;99.90;;;14.12;86.54;100763.78;3469718;40;102434;-41
2021/07/30 00:55:10;;;;;;;;;;;15.40;99.90;;;14.15;86.29;100770.66;3470560;39;102574;-41
2021/07/30 00:57:38;;;;;;;;;;;15.40;99.90;;;14.17;86.13;100765.78;3469446;40;104133;-41
2021/07/30 01:00:05;;;;;;;;;;;15.40;99.90;;;14.18;85.90;100760.06;3469805;40;102187;-41
2021/07/30 01:02:33;;;;;;;;;;;15.40;99.90;;;14.22;85.54;100766.75;3470062;40;103155;-38
2021/07/30 01:05:01;;;;;;;;;;;15.50;99.90;;;14.29;86.06;100755.66;3469157;40;102357;-41
2021/07/30 01:07:28;;;;;;;;;;;15.50;99.90;;;14.29;85.81;100763.88;3469725;40;102121;-41
2021/07/30 01:09:56;;;;;;;;;;;15.60;99.90;;;14.28;84.91;100758.63;3470849;39;102383;-41
2021/07/30 01:12:23;;;;;;;;;;;15.60;99.90;;;14.32;84.62;100760.66;3469167;40;103083;-41
2021/07/30 01:14:53;;;;;;;;;;;15.60;99.90;;;14.35;84.33;100748.38;3469682;40;102374;-41
2021/07/30 01:17:21;;;;;;;;;;;15.60;99.90;;;14.34;83.58;100747.53;3469258;40;103958;-41
2021/07/30 01:19:48;;;;;;;;;;;15.60;99.90;;;14.37;83.35;100740.75;3469171;40;102130;-41
2021/07/30 01:22:54;;;;;;;;;;;15.60;99.90;;;14.39;83.21;100750.38;3469619;40;102126;-41
2021/07/30 01:25:23;;;;;;;;;;;15.60;99.90;;;14.41;81.91;100750.16;3480288;40;102701;-41
2021/07/30 01:27:51;;;;;;;;;;;15.70;99.90;;;14.43;81.28;100738.94;3469139;40;103054;-40
2021/07/30 01:30:20;;;;;;;;;;;15.70;99.90;;;14.48;81.77;100753.59;3469403;40;102235;-41
2021/07/30 01:32:47;;;;;;;;;;;15.70;99.90;;;14.50;82.58;100740.47;3469719;40;103026;-41
2021/07/30 01:35:15;;;;;;;;;;;15.80;99.90;;;14.50;82.83;100743.22;3469068;40;102273;-41
2021/07/30 01:37:42;;;;;;;;;;;15.70;99.90;;;14.48;82.75;100747.28;3469169;40;102262;-44
2021/07/30 01:40:10;;;;;;;;;;;15.70;99.90;;;14.35;82.79;100729.16;3469728;39;102484;-41
2021/07/30 01:42:40;;;;;;;;;;;15.70;99.90;;;14.36;83.55;100739.88;3469280;40;103995;-41
2021/07/30 01:45:09;;;;;;;;;;;15.70;99.90;;;14.37;84.09;100743.50;3469069;40;102274;-40
2021/07/30 01:47:36;;;;;;;;;;;15.70;99.90;;;14.31;84.77;100742.53;3476262;40;102158;-41
2021/07/30 01:50:04;;;;;;;;;;;15.60;99.90;;;14.26;85.34;100744.31;3469449;40;102828;-41
2021/07/30 01:52:31;;;;;;;;;;;15.50;99.90;;;14.22;85.66;100738.47;3470425;39;103030;-41
2021/07/30 01:54:59;;;;;;;;;;;15.50;99.90;;;14.17;85.99;100746.56;3469681;40;102959;-43
2021/07/30 01:57:27;;;;;;;;;;;15.40;99.90;;;14.12;86.27;100733.59;3469979;40;103977;-41
2021/07/30 01:59:55;;;;;;;;;;;15.40;99.90;;;14.04;87.01;100736.66;3470342;40;102387;-40
2021/07/30 02:02:22;;;;;;;;;;;15.40;99.90;;;13.98;87.05;100732.16;3610454;22;102591;-39
2021/07/30 02:04:49;;;;;;;;;;;15.30;99.90;;;13.97;87.45;100738.69;3550787;39;102242;-40
2021/07/30 02:07:19;;;;;;;;;;;15.30;99.90;;;13.93;87.59;100733.69;3550487;39;103150;-40
2021/07/30 02:09:47;;;;;;;;;;;15.20;99.90;;;13.88;87.95;100738.22;3551062;39;102203;-39
2021/07/30 02:12:15;;;;;;;;;;;15.20;99.90;;;13.84;88.32;100734.28;3550377;39;102398;-40
2021/07/30 02:14:42;;;;;;;;;;;15.10;99.90;;;13.76;88.65;100735.44;3550857;39;102118;-39
2021/07/30 02:17:10;;;;;;;;;;;15.10;99.90;;;13.66;88.51;100736.88;3550693;39;102231;-40
2021/07/30 02:19:37;;;;;;;;;;;15.00;99.90;;;13.59;88.70;100732.56;3550959;39;102315;-40
2021/07/30 02:22:04;;;;;;;;;;;14.90;99.90;;;13.50;88.52;100726.56;3550563;39;102108;-39
2021/07/30 02:24:31;;;;;;;;;;;14.90;99.90;;;13.41;88.70;100734.28;3550421;39;102524;-40
2021/07/30 02:26:59;;;;;;;;;;;14.70;99.90;;;13.32;88.93;100725.56;3550851;39;102144;-39
2021/07/30 02:29:26;;;;;;;;;;;14.70;99.90;;;13.26;88.84;100726.50;3551279;39;102178;-39
2021/07/30 02:31:53;;;;;;;;;;;14.60;99.90;;;13.18;88.76;100718.59;3550997;39;103095;-39
2021/07/30 02:34:20;;;;;;;;;;;14.60;99.90;;;13.11;88.88;100715.13;3550514;39;102487;-40
2021/07/30 02:36:48;;;;;;;;;;;14.50;99.90;;;13.03;88.83;100717.13;3550742;39;102153;-39
2021/07/30 02:39:15;;;;;;;;;;;14.40;99.90;;;12.98;88.83;100714.22;3550840;39;102761;-40
2021/07/30 02:41:42;;;;;;;;;;;14.40;99.90;;;12.93;88.53;100711.34;3550590;39;103052;-39
2021/07/30 02:44:09;;;;;;;;;;;14.30;99.90;;;12.89;88.33;100715.63;3550235;39;102379;-39
2021/07/30 02:46:37;;;;;;;;;;;14.20;99.90;;;12.87;88.32;100720.50;3550535;39;102296;-40
2021/07/30 02:49:04;;;;;;;;;;;14.30;99.90;;;12.86;88.37;100716.09;3551299;39;102408;-39
2021/07/30 02:51:31;;;;;;;;;;;14.20;99.90;;;12.83;88.23;100711.88;3551211;39;103157;-39
2021/07/30 02:53:58;;;;;;;;;;;14.20;99.90;;;12.83;88.58;100713.81;3550455;39;102494;-38
2021/07/30 02:56:25;;;;;;;;;;;14.20;99.90;;;12.82;88.78;100718.44;3550723;39;102127;-39
2021/07/30 02:58:52;;;;;;;;;;;14.20;99.90;;;12.77;88.95;100710.94;3551159;39;102379;-39
2021/07/30 03:01:19;;;;;;;;;;;14.10;99.90;;;12.74;89.18;100714.13;3550641;39;103955;-40
2021/07/30 03:03:47;;;;;;;;;;;14.10;99.90;;;12.72;89.30;100716.22;3550263;39;104387;-39
2021/07/30 03:06:14;;;;;;;;;;;14.10;99.90;;;12.69;89.34;100707.66;3550304;39;103134;-39
2021/07/30 03:08:41;;;;;;;;;;;14.10;99.90;;;12.66;89.72;100712.53;3550416;39;102340;-39
2021/07/30 03:11:08;;;;;;;;;;;14.00;99.90;;;12.65;90.09;100708.13;3550652;39;103181;-39
2021/07/30 03:13:35;;;;;;;;;;;14.00;99.90;;;12.63;90.30;100709.41;3549786;39;102476;-39
2021/07/30 03:16:04;;;;;;;;;;;14.00;99.90;;;12.60;90.67;100701.66;3550413;39;103151;-39
2021/07/30 03:18:32;;;;;;;;;;;13.90;99.90;;;12.55;90.78;100696.03;3550888;39;102084;-39
2021/07/30 03:20:59;;;;;;;;;;;13.90;99.90;;;12.54;91.05;100691.63;3550506;39;103476;-39
2021/07/30 03:23:27;;;;;;;;;;;13.90;99.90;;;12.48;91.15;100696.97;3550509;39;102191;-39
2021/07/30 03:25:54;;;;;;;;;;;13.90;99.90;;;12.45;91.09;100700.13;3550331;39;102200;-39
2021/07/30 03:28:21;;;;;;;;;;;13.80;99.90;;;12.41;91.22;100695.38;3550874;39;102367;-39
2021/07/30 03:30:49;;;;;;;;;;;13.80;99.90;;;12.36;91.19;100682.34;3550494;39;102199;-40
2021/07/30 03:33:16;;;;;;;;;;;13.80;99.90;;;12.34;91.07;100688.06;3550478;39;102298;-39
2021/07/30 03:35:44;;;;;;;;;;;13.70;99.90;;;12.30;91.43;100680.53;3551129;39;102340;-39
2021/07/30 03:38:13;;;;;;;;;;;13.70;99.90;;;12.32;91.42;100694.81;3550455;39;102501;-39
2021/07/30 03:40:42;;;;;;;;;;;13.70;99.90;;;12.28;91.54;100688.97;3550788;39;102377;-39
2021/07/30 03:43:10;;;;;;;;;;;13.70;99.90;;;12.26;91.81;100685.63;3550945;39;102754;-40
2021/07/30 03:45:37;;;;;;;;;;;13.70;99.90;;;12.23;91.52;100681.47;3550653;39;103026;-39
2021/07/30 03:48:05;;;;;;;;;;;13.60;99.90;;;12.22;91.68;100682.53;3541295;39;102397;-39
2021/07/30 03:50:32;;;;;;;;;;;13.60;99.90;;;12.22;92.08;100687.13;3550414;39;103027;-39
2021/07/30 03:53:02;;;;;;;;;;;13.60;99.90;;;12.21;92.14;100685.47;3550408;39;102397;-39
2021/07/30 03:55:32;;;;;;;;;;;13.60;99.90;;;12.20;92.37;100681.06;3550188;39;104098;-39
2021/07/30 03:57:59;;;;;;;;;;;13.60;99.90;;;12.19;92.21;100682.94;3551018;39;102119;-39
2021/07/30 04:00:26;;;;;;;;;;;13.60;99.90;;;12.25;92.38;100685.88;3550426;39;102111;-43
2021/07/30 04:02:54;;;;;;;;;;;13.60;99.90;;;12.28;92.63;100678.03;3550004;39;102399;-39
2021/07/30 04:05:21;;;;;;;;;;;13.60;99.90;;;12.29;92.70;100681.59;3550067;39;102807;-39
2021/07/30 04:07:48;;;;;;;;;;;13.60;99.90;;;12.29;93.05;100671.47;3550367;39;102212;-39
2021/07/30 04:10:16;;;;;;;;;;;13.60;99.90;;;12.33;93.10;100674.59;3550661;39;103141;-39
2021/07/30 04:12:43;;;;;;;;;;;13.70;99.90;;;12.42;93.32;100672.41;3550573;39;102587;-39
2021/07/30 04:15:10;;;;;;;;;;;13.70;99.90;;;12.47;93.26;100672.56;3550188;39;103155;-39
2021/07/30 04:17:37;;;;;;;;;;;13.80;99.90;;;12.54;93.01;100676.03;3550437;39;102284;-39
2021/07/30 04:20:05;;;;;;;;;;;13.80;99.90;;;12.58;92.79;100681.91;3550404;39;102348;-39
2021/07/30 04:22:32;;;;;;;;;;;13.90;99.90;;;12.61;92.70;100681.44;3550576;39;102215;-39
2021/07/30 04:25:00;;;;;;;;;;;13.90;99.90;;;12.68;92.59;100675.88;3549747;39;103228;-39
2021/07/30 04:27:27;;;;;;;;;;;14.00;99.90;;;12.75;92.30;100676.63;3549947;39;103072;-39
2021/07/30 04:29:54;;;;;;;;;;;14.10;99.90;;;12.77;92.06;100680.81;3549784;39;105135;-39
2021/07/30 04:32:21;;;;;;;;;;;14.10;99.90;;;12.79;91.96;100681.41;3550189;39;102379;-39
2021/07/30 04:34:48;;;;;;;;;;;14.10;99.90;;;12.83;91.77;100683.69;3549954;39;103668;-39
2021/07/30 04:37:16;;;;;;;;;;;14.10;99.90;;;12.86;91.82;100673.09;3550469;39;102124;-40
2021/07/30 04:39:43;;;;;;;;;;;14.10;99.90;;;12.88;91.78;100665.50;3550355;39;102267;-40
2021/07/30 04:42:10;;;;;;;;;;;14.20;99.90;;;12.93;91.99;100676.59;3550056;39;102797;-39
2021/07/30 04:44:37;;;;;;;;;;;14.20;99.90;;;12.97;91.52;100678.88;3550097;39;103935;-39
2021/07/30 04:47:05;;;;;;;;;;;14.30;99.90;;;13.01;91.50;100685.53;3550641;39;102976;-39
2021/07/30 04:49:32;;;;;;;;;;;14.30;99.90;;;13.04;91.55;100682.34;3550323;39;102465;-40
2021/07/30 04:52:02;;;;;;;;;;;14.30;99.90;;;13.08;91.28;100669.84;3549794;39;102409;-39
2021/07/30 04:54:30;;;;;;;;;;;14.40;99.90;;;13.14;91.66;100679.03;3550120;39;102268;-39
2021/07/30 04:56:57;;;;;;;;;;;14.40;99.90;;;13.18;91.38;100685.72;3549886;39;102282;-39
2021/07/30 04:59:24;;;;;;;;;;;14.50;99.90;;;13.21;91.21;100677.88;3550363;39;103292;-39
2021/07/30 05:01:52;;;;;;;;;;;14.50;99.90;;;13.27;90.69;100684.34;3550326;39;102354;-39
2021/07/30 05:04:22;;;;;;;;;;;14.50;99.90;;;13.40;90.48;100685.19;3549482;39;103392;-39
2021/07/30 05:06:49;;;;;;;;;;;14.60;99.90;;;13.49;90.01;100681.06;3550019;39;103003;-39
2021/07/30 05:09:16;;;;;;;;;;;14.70;99.90;;;13.55;89.58;100674.66;3550063;39;102443;-39
2021/07/30 05:11:44;;;;;;;;;;;14.80;99.90;;;13.62;88.88;100675.38;3549987;39;102666;-39
2021/07/30 05:14:11;;;;;;;;;;;14.80;99.90;;;13.73;88.75;100681.09;3550252;39;102330;-39
2021/07/30 05:16:39;;;;;;;;;;;14.90;99.90;;;13.77;88.84;100672.16;3550129;39;102260;-39
2021/07/30 05:19:06;;;;;;;;;;;15.00;99.90;;;13.84;88.52;100666.56;3550487;39;103045;-39
2021/07/30 05:21:33;;;;;;;;;;;15.00;99.90;;;13.93;88.09;100667.88;3549689;39;102145;-40
2021/07/30 05:24:01;;;;;;;;;;;15.10;99.90;;;14.01;87.67;100663.09;3549303;39;102312;-39
2021/07/30 05:26:28;;;;;;;;;;;15.20;99.90;;;14.15;86.79;100664.53;3550179;39;102324;-39
2021/07/30 05:28:55;;;;;;;;;;;15.30;99.90;;;14.21;86.83;100663.56;3551383;39;104048;-40
2021/07/30 05:31:23;;;;;;;;;;;15.40;99.90;;;14.27;85.91;100655.44;3550919;39;102460;-39
2021/07/30 05:33:51;;;;;;;;;;;15.40;99.90;;;14.37;85.62;100655.66;3551298;39;103267;-40
2021/07/30 05:36:20;;;;;;;;;;;15.50;99.90;;;14.51;85.63;100648.81;3551025;39;102258;-40
2021/07/30 05:38:48;;;;;;;;;;;15.60;99.90;;;14.57;85.15;100649.75;3551203;39;103378;-40
2021/07/30 05:41:17;;;;;;;;;;;15.70;99.90;;;14.71;85.46;100647.59;3550982;39;102247;-39
2021/07/30 05:43:45;;;;;;;;;;;15.80;99.90;;;14.89;83.54;100651.22;3550639;39;102279;-39
2021/07/30 05:46:14;;;;;;;;;;;15.90;99.90;;;15.16;83.95;100645.13;3551116;39;102188;-40
2021/07/30 05:48:41;;;;;;;;;;;16.10;99.90;;;15.37;82.94;100641.63;3550877;39;102202;-41
2021/07/30 05:51:10;;;;;;;;;;;16.30;99.90;;;15.49;80.57;100637.97;3550795;39;102810;-39
2021/07/30 05:53:38;;;;;;;;;;;16.50;99.90;;;15.59;79.79;100638.13;3550980;39;104208;-39
2021/07/30 05:56:06;;;;;;;;;;;16.60;99.90;;;15.64;78.79;100643.69;3551086;39;102405;-39
2021/07/30 05:58:34;;;;;;;;;;;16.60;99.90;;;15.75;78.44;100630.13;3551023;39;102381;-40
2021/07/30 06:01:01;;;;;;;;;;;16.70;99.90;;;15.98;78.01;100620.03;3551370;39;102386;-40
2021/07/30 06:03:29;;;;;;;;;;;16.90;99.90;;;16.28;77.18;100638.03;3551030;39;102234;-39
2021/07/30 06:05:56;;;;;;;;;;;17.10;99.90;;;16.46;76.11;100637.72;3550544;39;102452;-39
2021/07/30 06:08:23;;;;;;;;;;;17.30;99.90;;;16.52;73.88;100641.38;3550874;39;103279;-39
2021/07/30 06:10:51;;;;;;;;;;;17.40;99.90;;;16.62;73.51;100637.91;3550658;39;102397;-39
2021/07/30 06:13:18;;;;;;;;;;;17.50;99.90;;;16.77;74.70;100637.25;3550670;39;102256;-39
2021/07/30 06:15:45;;;;;;;;;;;17.70;99.90;;;16.83;72.64;100637.03;3550770;39;102480;-40
2021/07/30 06:18:13;;;;;;;;;;;17.80;99.90;;;16.90;72.72;100638.75;3551313;39;102301;-39
2021/07/30 06:20:41;;;;;;;;;;;17.80;99.90;;;16.97;72.01;100626.44;3551319;39;102261;-40
2021/07/30 06:23:08;;;;;;;;;;;17.90;99.90;;;17.16;71.84;100633.53;3551003;39;104404;-39
2021/07/30 06:25:35;;;;;;;;;;;18.10;99.90;;;17.42;70.88;100626.31;3550261;39;102863;-39
2021/07/30 06:28:03;;;;;;;;;;;18.30;99.90;;;17.46;69.61;100632.97;3550946;39;103094;-40
2021/07/30 06:30:30;;;;;;;;;;;18.30;99.90;;;17.36;69.24;100630.09;3550825;39;102372;-39
2021/07/30 06:32:58;;;;;;;;;;;18.30;99.90;;;17.32;70.76;100627.06;3550632;39;102300;-39
2021/07/30 06:35:26;;;;;;;;;;;18.30;99.90;;;17.39;71.69;100633.19;3550607;39;102458;-39
2021/07/30 06:37:53;;;;;;;;;;;18.30;99.90;;;17.40;70.29;100631.28;3551048;39;104048;-40
2021/07/30 06:40:21;;;;;;;;;;;18.30;99.90;;;17.49;71.35;100629.69;3550510;39;102197;-39
2021/07/30 06:42:48;;;;;;;;;;;18.40;99.90;;;17.78;70.95;100628.50;3550856;39;102407;-40
2021/07/30 06:45:15;;;;;;;;;;;18.60;99.90;;;18.04;70.15;100631.47;3550507;39;103907;-40
2021/07/30 06:47:43;;;;;;;;;;;18.80;99.90;;;18.26;67.93;100623.00;3550768;39;104156;-39
2021/07/30 06:50:11;;;;;;;;;;;19.00;99.90;;;18.45;66.43;100620.59;3550840;39;102937;-40
2021/07/30 06:52:38;;;;;;;;;;;19.20;99.90;;;18.71;66.08;100628.16;3550458;39;102455;-40
2021/07/30 06:55:06;;;;;;;;;;;19.40;99.90;;;18.83;65.20;100626.78;3550435;39;102467;-39
2021/07/30 06:57:33;;;;;;;;;;;19.60;99.90;;;18.64;64.51;100629.22;3550292;39;102329;-39
2021/07/30 07:00:00;;;;;;;;;;;19.50;99.90;;;18.36;65.21;100628.56;3550434;39;102425;-39
2021/07/30 07:02:28;;;;;;;;;;;19.40;99.90;;;18.38;66.28;100626.34;3550798;39;103133;-40
2021/07/30 07:04:55;;;;;;;;;;;19.30;99.90;;;18.42;64.39;100621.13;3550398;39;102429;-40
2021/07/30 07:07:24;;;;;;;;;;;19.30;99.90;;;18.49;66.08;100627.22;3550558;39;103338;-39
2021/07/30 07:09:52;;;;;;;;;;;19.40;99.90;;;18.80;65.40;100627.31;3551157;39;102439;-40
2021/07/30 07:12:19;;;;;;;;;;;19.50;99.90;;;19.08;64.92;100627.94;3551139;39;103062;-40
2021/07/30 07:14:46;;;;;;;;;;;19.70;99.90;;;19.14;64.27;100622.44;3550775;39;102300;-40
2021/07/30 07:17:15;;;;;;;;;;;19.90;99.90;;;19.23;62.84;100624.38;3550590;39;103144;-40
2021/07/30 07:19:43;;;;;;;;;;;20.00;99.90;;;19.51;62.98;100618.56;3550761;39;102403;-39
2021/07/30 07:22:11;;;;;;;;;;;20.20;99.90;;;19.64;63.87;100617.16;3550440;39;103152;-40
2021/07/30 07:24:39;;;;;;;;;;;20.30;99.90;;;20.03;63.68;100608.25;3551001;39;102374;-40
2021/07/30 07:27:07;;;;;;;;;;;20.60;99.90;;;20.13;64.15;100615.69;3550453;39;103164;-40
2021/07/30 07:29:34;;;;;;;;;;;20.80;99.90;;;20.19;59.57;100606.28;3550501;39;102376;-40
2021/07/30 07:32:02;;;;;;;;;;;20.80;99.90;;;20.25;61.03;100609.81;3550756;39;104200;-40
2021/07/30 07:34:29;;;;;;;;;;;20.90;99.90;;;20.40;62.35;100606.16;3550730;39;102453;-39
2021/07/30 07:36:57;;;;;;;;;;;21.00;99.90;;;20.30;59.78;100601.53;3550418;39;103653;-40
2021/07/30 07:39:24;;;;;;;;;;;21.00;99.90;;;20.34;58.21;100599.00;3550755;39;102485;-40
2021/07/30 07:41:51;;;;;;;;;;;21.10;99.90;;;20.39;57.95;100598.97;3550413;39;103280;-40
2021/07/30 07:44:20;;;;;;;;;;;21.10;99.90;;;20.44;58.98;100598.13;3549990;39;102345;-40
2021/07/30 07:46:47;;;;;;;;;;;21.10;99.90;;;20.51;58.52;100604.16;3551040;39;104133;-40
2021/07/30 07:49:15;;;;;;;;;;;21.20;99.90;;;20.40;57.55;100592.31;3550706;39;102852;-39
2021/07/30 07:51:42;;;;;;;;;;;21.20;99.90;;;20.66;60.14;100597.72;3549781;39;102492;-40
2021/07/30 07:54:09;;;;;;;;;;;21.30;99.90;;;20.68;57.48;100596.31;3550521;39;102678;-40
2021/07/30 07:56:36;;;;;;;;;;;21.30;99.90;;;20.46;57.51;100593.97;3550605;39;103333;-40
2021/07/30 07:59:04;;;;;;;;;;;21.30;99.90;;;20.27;58.07;100590.97;3550322;39;102286;-40
2021/07/30 08:01:31;;;;;;;;;;;21.20;99.90;;;20.30;57.73;100582.13;3550400;39;102221;-39
2021/07/30 08:04:00;;;;;;;;;;;21.10;99.90;;;20.33;57.56;100589.03;3682405;22;102971;-39
2021/07/30 08:06:27;;;;;;;;;;;21.10;99.90;;;20.53;58.59;100580.63;3550037;39;102356;-41
2021/07/30 08:08:54;;;;;;;;;;;21.30;99.90;;;20.63;56.66;100576.97;3550508;39;102807;-44
2021/07/30 08:11:22;;;;;;;;;;;21.30;99.90;;;20.79;58.55;100583.25;3550782;39;103228;-41
2021/07/30 08:13:49;;;;;;;;;;;21.40;99.90;;;20.88;56.52;100579.88;3550536;39;102190;-41
2021/07/30 08:16:23;;;;;;;;;;;21.50;99.90;;;21.01;57.72;100582.00;3550283;39;102835;-41
2021/07/30 08:18:50;;;;;;;;;;;21.70;99.90;;;21.19;57.45;100574.91;3550741;39;102132;-41
2021/07/30 08:21:18;;;;;;;;;;;21.80;99.90;;;21.41;55.68;100576.41;3550363;39;102411;-41
2021/07/30 08:23:45;;;;;;;;;;;22.00;99.90;;;21.76;57.05;100573.59;3550150;39;102372;-41
2021/07/30 08:26:12;;;;;;;;;;;22.30;99.90;;;21.94;54.51;100572.00;3550383;39;102366;-41
2021/07/30 08:28:40;;;;;;;;;;;22.50;99.90;;;22.05;53.11;100565.19;3550756;39;102439;-41
2021/07/30 08:31:07;;;;;;;;;;;22.70;99.90;;;22.11;54.09;100565.94;3551317;39;102217;-41
2021/07/30 08:33:36;;;;;;;;;;;22.80;99.90;;;22.22;53.29;100561.09;3550241;39;102337;-41
2021/07/30 08:36:06;;;;;;;;;;;22.90;99.90;;;22.54;53.88;100554.84;3550570;39;102198;-40
2021/07/30 08:38:33;;;;;;;;;;;23.00;99.90;;;22.48;52.17;100556.03;3550712;39;102723;-37
2021/07/30 08:41:00;;;;;;;;;;;23.00;99.90;;;22.55;51.83;100547.31;3550115;39;102244;-39
2021/07/30 08:43:28;;;;;;;;;;;23.20;99.90;;;22.66;49.62;100551.59;3550604;39;102383;-40
2021/07/30 08:45:57;;;;;;;;;;;23.20;99.90;;;22.69;52.82;100548.25;3550295;39;102275;-39
2021/07/30 08:48:25;;;;;;;;;;;23.30;99.90;;;22.77;52.80;100546.72;3550236;39;103093;-39
2021/07/30 08:50:54;;;;;;;;;;;23.40;99.90;;;22.69;52.90;100541.84;3550546;39;102247;-39
2021/07/30 08:53:24;;;;;;;;;;;23.40;99.90;;;22.69;51.91;100547.41;3550316;39;103108;-39
2021/07/30 08:55:53;;;;;;;;;;;23.40;99.90;;;22.83;52.67;100539.97;3550341;39;102259;-39
2021/07/30 08:58:20;;;;;;;;;;;23.40;99.90;;;22.89;51.87;100537.09;3550891;39;102496;-36
2021/07/30 09:00:48;;;;;;;;;;;23.50;99.90;;;22.95;51.84;100541.44;3550068;39;102461;-37
2021/07/30 09:03:15;;;;;;;;;;;23.50;99.90;;;23.23;52.53;100547.09;3549882;39;102478;-39
2021/07/30 09:05:43;;;;;;;;;;;23.80;99.90;;;23.38;50.94;100538.50;3549891;39;102146;-39
2021/07/30 09:08:10;;;;;;;;;;;23.90;99.90;;;23.53;52.67;100533.75;3550521;39;102425;-39
2021/07/30 09:10:42;;;;;;;;;;;24.10;99.90;;;23.73;49.20;100531.72;3550550;39;103313;-39
2021/07/30 09:13:20;;;;;;;;;;;24.20;99.90;;;23.70;50.53;100528.44;3550881;39;102885;-38
2021/07/30 09:16:06;;;;;;;;;;;24.20;99.90;;;23.63;51.12;100528.03;3550364;39;102270;-39
2021/07/30 09:18:42;;;;;;;;;;;24.20;99.90;;;23.62;50.25;100525.53;3550339;39;102287;-40
2021/07/30 09:21:36;;;;;;;;;;;24.20;99.90;;;23.76;50.20;100522.75;3550470;39;102279;-39
2021/07/30 09:24:09;;;;;;;;;;;24.40;99.90;;;23.92;47.01;100518.53;3550112;39;102298;-42
2021/07/30 09:26:40;;;;;;;;;;;24.50;99.70;;;24.42;50.03;100514.13;3550843;39;103254;-39
2021/07/30 09:29:13;;;;;;;;;;;24.80;99.90;;;24.61;46.62;100515.91;3549869;39;102192;-39
2021/07/30 09:31:42;;;;;;;;;;;25.10;99.90;;;24.76;48.01;100512.78;3550408;39;103105;-38
2021/07/30 09:34:23;;;;;;;;;;;25.20;99.90;;;24.56;43.79;100514.91;3549906;39;102189;-39
2021/07/30 09:37:01;;;;;;;;;;;25.30;96.50;;;24.59;47.21;100507.03;3550596;39;102313;-39
2021/07/30 09:39:35;;;;;;;;;;;25.30;99.60;;;24.57;45.44;100504.59;3550092;39;102561;-38
2021/07/30 09:42:09;;;;;;;;;;;25.30;97.90;;;24.23;47.73;100509.53;3550126;39;102271;-38
2021/07/30 09:44:53;;;;;;;;;;;25.10;97.80;;;24.49;48.32;100496.94;3549781;39;102374;-39
2021/07/30 09:47:24;;;;;;;;;;;25.20;99.40;;;24.31;48.35;100496.81;3549760;39;103099;-39
2021/07/30 09:49:56;;;;;;;;;;;25.10;99.20;;;24.24;46.67;100486.09;3540800;39;102185;-40
2021/07/30 09:52:29;;;;;;;;;;;25.10;98.70;;;24.09;51.09;100484.47;3540758;39;103144;-39
2021/07/30 09:55:02;;;;;;;;;;;24.90;99.90;;;23.90;50.09;100492.09;3549652;39;102441;-40
2021/07/30 09:57:34;;;;;;;;;;;24.70;99.90;;;24.05;46.83;100485.41;3550451;39;102327;-42
2021/07/30 10:00:06;;;;;;;;;;;24.80;98.50;;;24.38;47.57;100483.28;3549982;39;102377;-41
2021/07/30 10:02:38;;;;;;;;;;;25.00;98.30;;;24.69;48.58;100476.94;3550439;39;103114;-39
2021/07/30 10:05:12;;;;;;;;;;;25.20;99.90;;;24.53;43.06;100472.88;3549693;39;102461;-39
2021/07/30 10:07:41;;;;;;;;;;;25.30;95.10;;;24.33;46.63;100465.84;3549307;39;103199;-41
2021/07/30 10:12:47;;;;;;;;;;;25.20;96.00;;;24.32;48.67;100465.03;3549578;39;102673;-39
2021/07/30 10:15:14;;;;;;;;;;;25.10;98.50;;;24.12;45.88;100467.13;3551125;39;102294;-40
2021/07/30 10:17:46;;;;;;;;;;;25.00;96.70;;;23.96;46.30;100452.69;3551603;39;104044;-37
2021/07/30 10:20:15;;;;;;;;;;;24.90;96.70;;;23.76;46.33;100453.13;3551892;39;102355;-39
2021/07/30 10:23:07;;;;;;;;;;;24.70;97.30;;;23.51;47.98;100444.19;3551677;39;102139;-38
2021/07/30 10:25:37;;;;;;;;;;;24.50;97.00;;;23.46;45.57;100439.53;3550837;39;102854;-39
2021/07/30 10:28:25;;;;;;;;;;;24.50;96.30;;;23.68;46.11;100447.16;3551673;39;102423;-39
2021/07/30 10:31:06;;;;;;;;;;;24.50;99.40;;;23.84;46.93;100444.03;3551036;39;102472;-39
2021/07/30 10:33:34;;;;;;;;;;;24.60;97.80;;;23.84;47.02;100441.25;3550994;39;103130;-39
2021/07/30 10:36:06;;;;;;;;;;;24.60;97.60;;;24.09;50.58;100439.06;3551005;39;102190;-39
2021/07/30 10:38:34;;;;;;;;;;;24.70;99.90;;;24.49;49.12;100430.88;3551409;39;103280;-39
2021/07/30 10:41:07;;;;;;;;;;;25.00;99.90;;;24.51;47.02;100434.19;3551624;39;102046;-39
2021/07/30 10:43:50;;;;;;;;;;;25.20;97.50;;;24.49;48.96;100421.69;3551542;39;104141;-39
2021/07/30 10:46:18;;;;;;;;;;;25.20;99.10;;;24.65;47.07;100419.31;3550989;39;102839;-41
2021/07/30 10:48:47;;;;;;;;;;;25.30;98.10;;;24.82;48.52;100422.25;3551354;39;104019;-39
2021/07/30 10:51:21;;;;;;;;;;;25.50;99.90;;;24.65;44.90;100427.69;3551363;39;102428;-39
2021/07/30 10:54:01;;;;;;;;;;;25.40;96.30;;;24.82;47.33;100416.69;3551352;39;102213;-40
2021/07/30 10:56:28;;;;;;;;;;;25.50;98.30;;;25.17;45.98;100415.19;3551224;39;102967;-39
2021/07/30 10:58:57;;;;;;;;;;;25.70;97.80;;;24.93;47.23;100422.81;3551247;39;103190;-39
2021/07/30 11:01:30;;;;;;;;;;;25.70;98.00;;;24.98;48.10;100413.50;3551316;39;102292;-42
2021/07/30 11:03:58;;;;;;;;;;;25.70;98.60;;;25.11;46.39;100412.56;3550893;39;102331;-37
2021/07/30 11:06:29;;;;;;;;;;;25.80;97.70;;;25.09;46.34;100414.03;3550564;39;102820;-39
2021/07/30 11:08:59;;;;;;;;;;;25.80;97.60;;;25.08;45.98;100413.22;3551398;39;102106;-39
2021/07/30 11:11:36;;;;;;;;;;;25.80;96.80;;;24.87;46.16;100417.69;3551155;39;102246;-40